sensor_id;sensor_type;location;lat;lon;timestamp;P1;durP1;ratioP1;P2;durP2;ratioP2
10910;SDS011;5508;49.150;11.030;2022-08-25T00:00:07;12.80;;;9.27;;
10910;SDS011;5508;49.150;11.030;2022-08-25T00:03:08;9.10;;;8.20;;
10910;SDS011;5508;49.150;11.030;2022-08-25T00:06:10;9.20;;;8.30;;
10910;SDS011;5508;49.150;11.030;2022-08-25T00:09:13;10.93;;;8.73;;
10910;SDS011;5508;49.150;11.030;2022-08-25T00:12:15;11.10;;;9.90;;
10910;SDS011;5508;49.150;11.030;2022-08-25T00:15:16;11.10;;;9.30;;
10910;SDS011;5508;49.150;11.030;2022-08-25T00:18:17;12.97;;;8.60;;
10910;SDS011;5508;49.150;11.030;2022-08-25T00:21:17;10.87;;;9.50;;
10910;SDS011;5508;49.150;11.030;2022-08-25T00:24:19;10.30;;;9.20;;
10910;SDS011;5508;49.150;11.030;2022-08-25T00:27:20;17.93;;;9.37;;
10910;SDS011;5508;49.150;11.030;2022-08-25T00:30:21;12.87;;;9.23;;
10910;SDS011;5508;49.150;11.030;2022-08-25T00:33:21;10.37;;;9.37;;
10910;SDS011;5508;49.150;11.030;2022-08-25T00:36:22;11.27;;;9.20;;
10910;SDS011;5508;49.150;11.030;2022-08-25T00:39:23;9.90;;;9.00;;
10910;SDS011;5508;49.150;11.030;2022-08-25T00:42:24;12.53;;;10.70;;
10910;SDS011;5508;49.150;11.030;2022-08-25T00:45:25;12.37;;;9.83;;
10910;SDS011;5508;49.150;11.030;2022-08-25T00:48:25;10.43;;;9.40;;
10910;SDS011;5508;49.150;11.030;2022-08-25T00:51:32;10.73;;;9.57;;
10910;SDS011;5508;49.150;11.030;2022-08-25T00:54:46;11.27;;;8.67;;
10910;SDS011;5508;49.150;11.030;2022-08-25T00:57:55;10.77;;;9.20;;
10910;SDS011;5508;49.150;11.030;2022-08-25T01:00:59;11.03;;;9.93;;
10910;SDS011;5508;49.150;11.030;2022-08-25T01:03:59;11.33;;;8.43;;
10910;SDS011;5508;49.150;11.030;2022-08-25T01:07:00;9.83;;;8.77;;
10910;SDS011;5508;49.150;11.030;2022-08-25T01:10:02;10.63;;;9.53;;
10910;SDS011;5508;49.150;11.030;2022-08-25T01:13:05;13.40;;;8.97;;
10910;SDS011;5508;49.150;11.030;2022-08-25T01:16:22;10.37;;;9.27;;
10910;SDS011;5508;49.150;11.030;2022-08-25T01:19:24;11.40;;;9.80;;
10910;SDS011;5508;49.150;11.030;2022-08-25T01:22:26;12.27;;;10.70;;
10910;SDS011;5508;49.150;11.030;2022-08-25T01:28:50;12.60;;;10.13;;
10910;SDS011;5508;49.150;11.030;2022-08-25T01:32:11;10.63;;;9.53;;
10910;SDS011;5508;49.150;11.030;2022-08-25T01:35:13;10.87;;;9.77;;
10910;SDS011;5508;49.150;11.030;2022-08-25T01:38:14;11.00;;;9.90;;
10910;SDS011;5508;49.150;11.030;2022-08-25T01:41:16;10.47;;;9.47;;
10910;SDS011;5508;49.150;11.030;2022-08-25T01:44:35;10.33;;;9.27;;
10910;SDS011;5508;49.150;11.030;2022-08-25T01:47:37;9.07;;;8.17;;
10910;SDS011;5508;49.150;11.030;2022-08-25T01:50:38;10.67;;;9.00;;
10910;SDS011;5508;49.150;11.030;2022-08-25T01:53:40;10.33;;;9.07;;
10910;SDS011;5508;49.150;11.030;2022-08-25T01:56:43;12.77;;;10.10;;
10910;SDS011;5508;49.150;11.030;2022-08-25T01:59:43;11.07;;;9.97;;
10910;SDS011;5508;49.150;11.030;2022-08-25T02:02:44;11.10;;;9.60;;
10910;SDS011;5508;49.150;11.030;2022-08-25T02:05:45;11.63;;;10.37;;
10910;SDS011;5508;49.150;11.030;2022-08-25T02:08:50;11.07;;;9.90;;
10910;SDS011;5508;49.150;11.030;2022-08-25T02:11:52;11.60;;;10.23;;
10910;SDS011;5508;49.150;11.030;2022-08-25T02:14:53;11.40;;;10.20;;
10910;SDS011;5508;49.150;11.030;2022-08-25T02:17:53;11.63;;;9.97;;
10910;SDS011;5508;49.150;11.030;2022-08-25T02:20:54;12.27;;;9.97;;
10910;SDS011;5508;49.150;11.030;2022-08-25T02:23:54;10.43;;;9.43;;
10910;SDS011;5508;49.150;11.030;2022-08-25T02:26:55;11.43;;;10.23;;
10910;SDS011;5508;49.150;11.030;2022-08-25T02:29:57;10.53;;;9.43;;
10910;SDS011;5508;49.150;11.030;2022-08-25T02:32:57;9.70;;;8.70;;
10910;SDS011;5508;49.150;11.030;2022-08-25T02:35:58;10.90;;;9.87;;
10910;SDS011;5508;49.150;11.030;2022-08-25T02:38:59;12.10;;;10.83;;
10910;SDS011;5508;49.150;11.030;2022-08-25T02:42:01;13.03;;;10.47;;
10910;SDS011;5508;49.150;11.030;2022-08-25T02:45:02;10.47;;;9.23;;
10910;SDS011;5508;49.150;11.030;2022-08-25T02:48:03;10.70;;;9.67;;
10910;SDS011;5508;49.150;11.030;2022-08-25T02:51:04;11.27;;;10.13;;
10910;SDS011;5508;49.150;11.030;2022-08-25T02:54:05;11.43;;;10.23;;
10910;SDS011;5508;49.150;11.030;2022-08-25T02:57:06;15.37;;;12.20;;
10910;SDS011;5508;49.150;11.030;2022-08-25T03:00:07;11.33;;;10.13;;
10910;SDS011;5508;49.150;11.030;2022-08-25T03:03:12;12.20;;;9.83;;
10910;SDS011;5508;49.150;11.030;2022-08-25T03:06:13;11.90;;;10.80;;
10910;SDS011;5508;49.150;11.030;2022-08-25T03:09:16;12.30;;;10.20;;
10910;SDS011;5508;49.150;11.030;2022-08-25T03:12:16;12.33;;;11.13;;
10910;SDS011;5508;49.150;11.030;2022-08-25T03:15:17;12.77;;;10.30;;
10910;SDS011;5508;49.150;11.030;2022-08-25T03:18:18;12.83;;;10.67;;
10910;SDS011;5508;49.150;11.030;2022-08-25T03:21:18;11.67;;;9.83;;
10910;SDS011;5508;49.150;11.030;2022-08-25T03:24:20;13.37;;;10.90;;
10910;SDS011;5508;49.150;11.030;2022-08-25T03:27:21;12.00;;;10.70;;
10910;SDS011;5508;49.150;11.030;2022-08-25T03:30:21;12.23;;;10.83;;
10910;SDS011;5508;49.150;11.030;2022-08-25T03:33:22;16.10;;;11.93;;
10910;SDS011;5508;49.150;11.030;2022-08-25T03:36:23;13.70;;;10.80;;
10910;SDS011;5508;49.150;11.030;2022-08-25T03:39:25;13.83;;;10.50;;
10910;SDS011;5508;49.150;11.030;2022-08-25T03:42:26;12.23;;;11.03;;
10910;SDS011;5508;49.150;11.030;2022-08-25T03:45:26;13.37;;;10.70;;
10910;SDS011;5508;49.150;11.030;2022-08-25T03:48:27;12.60;;;10.40;;
10910;SDS011;5508;49.150;11.030;2022-08-25T03:51:30;11.37;;;10.10;;
10910;SDS011;5508;49.150;11.030;2022-08-25T03:54:33;13.33;;;11.07;;
10910;SDS011;5508;49.150;11.030;2022-08-25T03:57:34;13.27;;;10.90;;
10910;SDS011;5508;49.150;11.030;2022-08-25T04:00:34;11.93;;;10.63;;
10910;SDS011;5508;49.150;11.030;2022-08-25T04:03:35;12.83;;;11.37;;
10910;SDS011;5508;49.150;11.030;2022-08-25T04:06:36;14.30;;;11.30;;
10910;SDS011;5508;49.150;11.030;2022-08-25T04:09:38;14.53;;;11.60;;
10910;SDS011;5508;49.150;11.030;2022-08-25T04:12:39;12.93;;;11.23;;
10910;SDS011;5508;49.150;11.030;2022-08-25T04:15:42;12.20;;;10.50;;
10910;SDS011;5508;49.150;11.030;2022-08-25T04:18:44;14.90;;;11.90;;
10910;SDS011;5508;49.150;11.030;2022-08-25T04:21:45;11.57;;;10.37;;
10910;SDS011;5508;49.150;11.030;2022-08-25T04:24:46;12.13;;;9.57;;
10910;SDS011;5508;49.150;11.030;2022-08-25T04:27:46;12.03;;;10.83;;
10910;SDS011;5508;49.150;11.030;2022-08-25T04:30:47;15.30;;;11.23;;
10910;SDS011;5508;49.150;11.030;2022-08-25T04:33:48;12.33;;;10.80;;
10910;SDS011;5508;49.150;11.030;2022-08-25T04:36:49;12.53;;;11.23;;
10910;SDS011;5508;49.150;11.030;2022-08-25T04:39:50;12.77;;;11.47;;
10910;SDS011;5508;49.150;11.030;2022-08-25T04:42:50;12.40;;;11.17;;
10910;SDS011;5508;49.150;11.030;2022-08-25T04:45:51;11.73;;;9.97;;
10910;SDS011;5508;49.150;11.030;2022-08-25T04:48:53;12.33;;;11.03;;
10910;SDS011;5508;49.150;11.030;2022-08-25T04:51:55;14.07;;;11.40;;
10910;SDS011;5508;49.150;11.030;2022-08-25T04:54:56;13.47;;;10.33;;
10910;SDS011;5508;49.150;11.030;2022-08-25T04:57:56;15.53;;;10.77;;
10910;SDS011;5508;49.150;11.030;2022-08-25T05:01:01;13.93;;;10.43;;
10910;SDS011;5508;49.150;11.030;2022-08-25T05:04:03;12.83;;;11.17;;
10910;SDS011;5508;49.150;11.030;2022-08-25T05:07:05;11.57;;;10.47;;
10910;SDS011;5508;49.150;11.030;2022-08-25T05:10:06;12.23;;;10.93;;
10910;SDS011;5508;49.150;11.030;2022-08-25T05:13:07;13.83;;;10.87;;
10910;SDS011;5508;49.150;11.030;2022-08-25T05:16:07;12.00;;;10.70;;
10910;SDS011;5508;49.150;11.030;2022-08-25T05:19:08;13.63;;;12.23;;
10910;SDS011;5508;49.150;11.030;2022-08-25T05:22:09;13.50;;;12.10;;
10910;SDS011;5508;49.150;11.030;2022-08-25T05:25:09;14.03;;;11.93;;
10910;SDS011;5508;49.150;11.030;2022-08-25T05:28:10;12.33;;;11.03;;
10910;SDS011;5508;49.150;11.030;2022-08-25T05:31:12;11.90;;;10.70;;
10910;SDS011;5508;49.150;11.030;2022-08-25T05:34:14;13.13;;;11.83;;
10910;SDS011;5508;49.150;11.030;2022-08-25T05:37:15;13.17;;;11.87;;
10910;SDS011;5508;49.150;11.030;2022-08-25T05:40:16;13.67;;;12.07;;
10910;SDS011;5508;49.150;11.030;2022-08-25T05:43:16;13.37;;;11.00;;
10910;SDS011;5508;49.150;11.030;2022-08-25T05:46:17;13.20;;;11.67;;
10910;SDS011;5508;49.150;11.030;2022-08-25T05:49:20;14.00;;;11.93;;
10910;SDS011;5508;49.150;11.030;2022-08-25T05:52:20;15.30;;;13.70;;
10910;SDS011;5508;49.150;11.030;2022-08-25T05:55:21;17.07;;;12.47;;
10910;SDS011;5508;49.150;11.030;2022-08-25T05:58:22;14.90;;;13.43;;
10910;SDS011;5508;49.150;11.030;2022-08-25T06:01:25;16.50;;;14.60;;
10910;SDS011;5508;49.150;11.030;2022-08-25T06:04:46;16.93;;;14.03;;
10910;SDS011;5508;49.150;11.030;2022-08-25T06:07:47;15.80;;;14.17;;
10910;SDS011;5508;49.150;11.030;2022-08-25T06:10:52;17.07;;;15.37;;
10910;SDS011;5508;49.150;11.030;2022-08-25T06:13:53;16.87;;;15.17;;
10910;SDS011;5508;49.150;11.030;2022-08-25T06:16:54;16.73;;;15.03;;
10910;SDS011;5508;49.150;11.030;2022-08-25T06:19:55;16.37;;;14.67;;
10910;SDS011;5508;49.150;11.030;2022-08-25T06:22:56;16.73;;;15.03;;
10910;SDS011;5508;49.150;11.030;2022-08-25T06:25:59;15.47;;;13.87;;
10910;SDS011;5508;49.150;11.030;2022-08-25T06:28:59;16.27;;;14.57;;
10910;SDS011;5508;49.150;11.030;2022-08-25T06:32:00;16.23;;;14.50;;
10910;SDS011;5508;49.150;11.030;2022-08-25T06:35:01;15.37;;;13.87;;
10910;SDS011;5508;49.150;11.030;2022-08-25T06:38:03;15.03;;;13.47;;
10910;SDS011;5508;49.150;11.030;2022-08-25T06:41:04;22.00;;;14.50;;
10910;SDS011;5508;49.150;11.030;2022-08-25T06:44:05;15.03;;;13.07;;
10910;SDS011;5508;49.150;11.030;2022-08-25T06:47:06;16.30;;;13.47;;
10910;SDS011;5508;49.150;11.030;2022-08-25T06:50:07;15.43;;;13.37;;
10910;SDS011;5508;49.150;11.030;2022-08-25T06:53:07;14.87;;;13.40;;
10910;SDS011;5508;49.150;11.030;2022-08-25T06:56:08;15.10;;;13.50;;
10910;SDS011;5508;49.150;11.030;2022-08-25T06:59:10;14.73;;;13.23;;
10910;SDS011;5508;49.150;11.030;2022-08-25T07:02:10;34.20;;;12.43;;
10910;SDS011;5508;49.150;11.030;2022-08-25T07:05:11;16.20;;;11.13;;
10910;SDS011;5508;49.150;11.030;2022-08-25T07:08:11;30.97;;;13.07;;
10910;SDS011;5508;49.150;11.030;2022-08-25T07:11:12;12.53;;;10.83;;
10910;SDS011;5508;49.150;11.030;2022-08-25T07:14:14;12.13;;;10.40;;
10910;SDS011;5508;49.150;11.030;2022-08-25T07:17:16;11.83;;;9.80;;
10910;SDS011;5508;49.150;11.030;2022-08-25T07:20:17;10.47;;;9.20;;
10910;SDS011;5508;49.150;11.030;2022-08-25T07:23:18;9.93;;;9.03;;
10910;SDS011;5508;49.150;11.030;2022-08-25T07:26:21;11.53;;;8.70;;
10910;SDS011;5508;49.150;11.030;2022-08-25T07:29:24;9.27;;;8.10;;
10910;SDS011;5508;49.150;11.030;2022-08-25T07:32:27;11.33;;;8.40;;
10910;SDS011;5508;49.150;11.030;2022-08-25T07:35:28;9.10;;;8.27;;
10910;SDS011;5508;49.150;11.030;2022-08-25T07:38:31;9.57;;;8.25;;
10910;SDS011;5508;49.150;11.030;2022-08-25T07:41:34;9.18;;;8.05;;
10910;SDS011;5508;49.150;11.030;2022-08-25T07:44:36;8.77;;;7.88;;
10910;SDS011;5508;49.150;11.030;2022-08-25T07:47:37;8.23;;;7.43;;
10910;SDS011;5508;49.150;11.030;2022-08-25T07:50:39;8.57;;;7.78;;
10910;SDS011;5508;49.150;11.030;2022-08-25T07:53:42;8.38;;;7.57;;
10910;SDS011;5508;49.150;11.030;2022-08-25T07:56:43;8.00;;;7.28;;
10910;SDS011;5508;49.150;11.030;2022-08-25T07:59:44;8.65;;;7.78;;
10910;SDS011;5508;49.150;11.030;2022-08-25T08:02:45;10.30;;;8.13;;
10910;SDS011;5508;49.150;11.030;2022-08-25T08:05:46;10.88;;;7.63;;
10910;SDS011;5508;49.150;11.030;2022-08-25T08:08:48;8.45;;;7.10;;
10910;SDS011;5508;49.150;11.030;2022-08-25T08:11:49;13.27;;;6.90;;
10910;SDS011;5508;49.150;11.030;2022-08-25T08:14:50;13.52;;;7.10;;
10910;SDS011;5508;49.150;11.030;2022-08-25T08:17:52;7.65;;;6.65;;
10910;SDS011;5508;49.150;11.030;2022-08-25T08:20:52;6.65;;;5.97;;
10910;SDS011;5508;49.150;11.030;2022-08-25T08:23:56;6.80;;;6.20;;
10910;SDS011;5508;49.150;11.030;2022-08-25T08:26:57;11.00;;;6.10;;
10910;SDS011;5508;49.150;11.030;2022-08-25T08:29:57;6.95;;;5.82;;
10910;SDS011;5508;49.150;11.030;2022-08-25T08:32:58;14.90;;;7.22;;
10910;SDS011;5508;49.150;11.030;2022-08-25T08:36:04;12.27;;;6.75;;
10910;SDS011;5508;49.150;11.030;2022-08-25T08:39:07;15.27;;;7.40;;
10910;SDS011;5508;49.150;11.030;2022-08-25T08:45:34;7.47;;;6.70;;
10910;SDS011;5508;49.150;11.030;2022-08-25T08:49:00;9.57;;;6.40;;
10910;SDS011;5508;49.150;11.030;2022-08-25T08:52:05;7.22;;;6.40;;
10910;SDS011;5508;49.150;11.030;2022-08-25T08:55:10;7.25;;;6.65;;
10910;SDS011;5508;49.150;11.030;2022-08-25T09:01:50;7.18;;;6.18;;
10910;SDS011;5508;49.150;11.030;2022-08-25T09:04:58;7.20;;;6.10;;
10910;SDS011;5508;49.150;11.030;2022-08-25T09:08:04;10.32;;;6.22;;
10910;SDS011;5508;49.150;11.030;2022-08-25T09:11:17;6.45;;;5.80;;
10910;SDS011;5508;49.150;11.030;2022-08-25T09:18:10;9.00;;;6.32;;
10910;SDS011;5508;49.150;11.030;2022-08-25T09:21:29;7.07;;;6.07;;
10910;SDS011;5508;49.150;11.030;2022-08-25T09:28:00;6.68;;;6.00;;
10910;SDS011;5508;49.150;11.030;2022-08-25T09:34:27;6.40;;;5.88;;
10910;SDS011;5508;49.150;11.030;2022-08-25T09:37:31;7.03;;;5.82;;
10910;SDS011;5508;49.150;11.030;2022-08-25T09:40:33;7.60;;;5.93;;
10910;SDS011;5508;49.150;11.030;2022-08-25T09:43:36;6.53;;;5.93;;
10910;SDS011;5508;49.150;11.030;2022-08-25T09:46:40;8.00;;;6.20;;
10910;SDS011;5508;49.150;11.030;2022-08-25T09:50:01;9.20;;;6.30;;
10910;SDS011;5508;49.150;11.030;2022-08-25T09:53:13;7.78;;;6.55;;
10910;SDS011;5508;49.150;11.030;2022-08-25T09:56:15;8.13;;;5.97;;
10910;SDS011;5508;49.150;11.030;2022-08-25T09:59:22;8.07;;;6.32;;
10910;SDS011;5508;49.150;11.030;2022-08-25T10:02:26;7.95;;;6.10;;
10910;SDS011;5508;49.150;11.030;2022-08-25T10:05:27;6.60;;;5.97;;
10910;SDS011;5508;49.150;11.030;2022-08-25T10:14:39;12.80;;;6.97;;
10910;SDS011;5508;49.150;11.030;2022-08-25T10:17:40;8.27;;;6.80;;
10910;SDS011;5508;49.150;11.030;2022-08-25T10:20:40;8.73;;;6.68;;
10910;SDS011;5508;49.150;11.030;2022-08-25T10:23:44;7.35;;;6.65;;
10910;SDS011;5508;49.150;11.030;2022-08-25T10:26:54;8.27;;;6.30;;
10910;SDS011;5508;49.150;11.030;2022-08-25T10:34:08;10.48;;;6.75;;
10910;SDS011;5508;49.150;11.030;2022-08-25T10:37:26;9.05;;;6.22;;
10910;SDS011;5508;49.150;11.030;2022-08-25T10:44:02;12.25;;;7.55;;
10910;SDS011;5508;49.150;11.030;2022-08-25T10:50:32;8.63;;;6.40;;
10910;SDS011;5508;49.150;11.030;2022-08-25T11:00:54;6.13;;;5.53;;
10910;SDS011;5508;49.150;11.030;2022-08-25T11:04:06;6.68;;;6.07;;
10910;SDS011;5508;49.150;11.030;2022-08-25T11:10:36;8.10;;;5.75;;
10910;SDS011;5508;49.150;11.030;2022-08-25T11:13:50;6.68;;;5.95;;
10910;SDS011;5508;49.150;11.030;2022-08-25T11:16:58;7.07;;;6.32;;
10910;SDS011;5508;49.150;11.030;2022-08-25T11:20:09;10.27;;;6.63;;
10910;SDS011;5508;49.150;11.030;2022-08-25T11:23:18;10.07;;;7.05;;
10910;SDS011;5508;49.150;11.030;2022-08-25T11:26:32;7.68;;;6.55;;
10910;SDS011;5508;49.150;11.030;2022-08-25T11:29:36;10.98;;;6.45;;
10910;SDS011;5508;49.150;11.030;2022-08-25T11:32:43;8.27;;;5.95;;
10910;SDS011;5508;49.150;11.030;2022-08-25T11:35:48;9.45;;;6.30;;
10910;SDS011;5508;49.150;11.030;2022-08-25T11:43:06;11.00;;;6.30;;
10910;SDS011;5508;49.150;11.030;2022-08-25T11:45:51;10.55;;;6.75;;
10910;SDS011;5508;49.150;11.030;2022-08-25T11:55:49;9.35;;;5.85;;
10910;SDS011;5508;49.150;11.030;2022-08-25T11:58:52;10.13;;;6.53;;
10910;SDS011;5508;49.150;11.030;2022-08-25T12:04:53;14.75;;;7.38;;
10910;SDS011;5508;49.150;11.030;2022-08-25T12:11:41;9.45;;;6.72;;
10910;SDS011;5508;49.150;11.030;2022-08-25T12:14:41;7.53;;;6.60;;
10910;SDS011;5508;49.150;11.030;2022-08-25T12:17:43;9.00;;;6.90;;
10910;SDS011;5508;49.150;11.030;2022-08-25T12:27:04;7.13;;;6.43;;
10910;SDS011;5508;49.150;11.030;2022-08-25T12:30:16;8.75;;;6.10;;
10910;SDS011;5508;49.150;11.030;2022-08-25T12:37:06;11.55;;;6.60;;
10910;SDS011;5508;49.150;11.030;2022-08-25T12:40:21;7.65;;;6.00;;
10910;SDS011;5508;49.150;11.030;2022-08-25T12:43:46;11.43;;;6.82;;
10910;SDS011;5508;49.150;11.030;2022-08-25T12:46:50;11.13;;;6.55;;
10910;SDS011;5508;49.150;11.030;2022-08-25T12:56:41;14.55;;;7.05;;
10910;SDS011;5508;49.150;11.030;2022-08-25T12:59:47;13.50;;;6.43;;
10910;SDS011;5508;49.150;11.030;2022-08-25T13:03:07;12.68;;;6.45;;
10910;SDS011;5508;49.150;11.030;2022-08-25T13:16:02;11.65;;;6.75;;
10910;SDS011;5508;49.150;11.030;2022-08-25T13:19:05;9.88;;;5.95;;
10910;SDS011;5508;49.150;11.030;2022-08-25T13:22:11;15.82;;;6.78;;
10910;SDS011;5508;49.150;11.030;2022-08-25T13:25:14;14.20;;;6.05;;
10910;SDS011;5508;49.150;11.030;2022-08-25T13:28:20;14.50;;;6.35;;
10910;SDS011;5508;49.150;11.030;2022-08-25T13:31:27;8.93;;;6.22;;
10910;SDS011;5508;49.150;11.030;2022-08-25T13:34:30;10.25;;;5.55;;
10910;SDS011;5508;49.150;11.030;2022-08-25T13:37:37;10.35;;;6.35;;
10910;SDS011;5508;49.150;11.030;2022-08-25T13:40:37;11.88;;;5.57;;
10910;SDS011;5508;49.150;11.030;2022-08-25T13:43:38;12.25;;;6.50;;
10910;SDS011;5508;49.150;11.030;2022-08-25T13:46:39;11.80;;;6.25;;
10910;SDS011;5508;49.150;11.030;2022-08-25T13:49:41;14.00;;;6.38;;
10910;SDS011;5508;49.150;11.030;2022-08-25T13:52:52;11.50;;;5.95;;
10910;SDS011;5508;49.150;11.030;2022-08-25T13:56:02;12.65;;;7.43;;
10910;SDS011;5508;49.150;11.030;2022-08-25T13:59:04;14.77;;;6.72;;
10910;SDS011;5508;49.150;11.030;2022-08-25T14:02:12;15.85;;;6.97;;
10910;SDS011;5508;49.150;11.030;2022-08-25T14:05:13;14.85;;;6.57;;
10910;SDS011;5508;49.150;11.030;2022-08-25T14:08:28;11.68;;;6.45;;
10910;SDS011;5508;49.150;11.030;2022-08-25T14:14:43;16.83;;;6.85;;
10910;SDS011;5508;49.150;11.030;2022-08-25T14:18:02;12.35;;;5.72;;
10910;SDS011;5508;49.150;11.030;2022-08-25T14:21:09;14.35;;;6.82;;
10910;SDS011;5508;49.150;11.030;2022-08-25T14:24:13;12.23;;;6.63;;
10910;SDS011;5508;49.150;11.030;2022-08-25T14:27:18;16.70;;;6.93;;
10910;SDS011;5508;49.150;11.030;2022-08-25T14:30:19;16.15;;;6.93;;
10910;SDS011;5508;49.150;11.030;2022-08-25T14:33:21;17.17;;;6.90;;
10910;SDS011;5508;49.150;11.030;2022-08-25T14:36:23;13.05;;;6.35;;
10910;SDS011;5508;49.150;11.030;2022-08-25T14:39:25;16.58;;;6.60;;
10910;SDS011;5508;49.150;11.030;2022-08-25T14:42:26;23.60;;;7.88;;
10910;SDS011;5508;49.150;11.030;2022-08-25T14:45:27;15.25;;;6.57;;
10910;SDS011;5508;49.150;11.030;2022-08-25T14:48:31;18.48;;;7.20;;
10910;SDS011;5508;49.150;11.030;2022-08-25T14:51:39;13.40;;;6.13;;
10910;SDS011;5508;49.150;11.030;2022-08-25T14:54:41;21.67;;;7.22;;
10910;SDS011;5508;49.150;11.030;2022-08-25T14:57:42;14.05;;;7.00;;
10910;SDS011;5508;49.150;11.030;2022-08-25T15:00:43;16.60;;;6.45;;
10910;SDS011;5508;49.150;11.030;2022-08-25T15:03:46;14.00;;;6.40;;
10910;SDS011;5508;49.150;11.030;2022-08-25T15:06:50;17.15;;;6.13;;
10910;SDS011;5508;49.150;11.030;2022-08-25T15:09:54;11.20;;;5.82;;
10910;SDS011;5508;49.150;11.030;2022-08-25T15:12:55;14.05;;;6.70;;
10910;SDS011;5508;49.150;11.030;2022-08-25T15:15:55;17.30;;;6.70;;
10910;SDS011;5508;49.150;11.030;2022-08-25T15:18:57;21.67;;;6.95;;
10910;SDS011;5508;49.150;11.030;2022-08-25T15:21:58;11.38;;;6.47;;
10910;SDS011;5508;49.150;11.030;2022-08-25T15:24:58;15.98;;;6.50;;
10910;SDS011;5508;49.150;11.030;2022-08-25T15:27:59;23.38;;;6.88;;
10910;SDS011;5508;49.150;11.030;2022-08-25T15:31:04;15.77;;;6.55;;
10910;SDS011;5508;49.150;11.030;2022-08-25T15:34:05;18.15;;;6.70;;
10910;SDS011;5508;49.150;11.030;2022-08-25T15:37:10;16.67;;;6.60;;
10910;SDS011;5508;49.150;11.030;2022-08-25T15:40:13;19.02;;;6.53;;
10910;SDS011;5508;49.150;11.030;2022-08-25T15:43:14;14.95;;;6.60;;
10910;SDS011;5508;49.150;11.030;2022-08-25T15:46:16;16.65;;;6.70;;
10910;SDS011;5508;49.150;11.030;2022-08-25T15:49:19;14.98;;;6.80;;
10910;SDS011;5508;49.150;11.030;2022-08-25T15:52:20;13.93;;;7.10;;
10910;SDS011;5508;49.150;11.030;2022-08-25T15:55:21;17.83;;;7.57;;
10910;SDS011;5508;49.150;11.030;2022-08-25T15:58:21;13.80;;;6.55;;
10910;SDS011;5508;49.150;11.030;2022-08-25T16:01:26;15.10;;;6.88;;
10910;SDS011;5508;49.150;11.030;2022-08-25T16:04:28;11.95;;;6.72;;
10910;SDS011;5508;49.150;11.030;2022-08-25T16:07:30;14.68;;;6.95;;
10910;SDS011;5508;49.150;11.030;2022-08-25T16:10:34;14.90;;;7.03;;
10910;SDS011;5508;49.150;11.030;2022-08-25T16:13:36;17.25;;;7.05;;
10910;SDS011;5508;49.150;11.030;2022-08-25T16:16:37;15.60;;;6.40;;
10910;SDS011;5508;49.150;11.030;2022-08-25T16:19:37;15.55;;;7.22;;
10910;SDS011;5508;49.150;11.030;2022-08-25T16:22:38;18.17;;;8.00;;
10910;SDS011;5508;49.150;11.030;2022-08-25T16:25:43;14.48;;;7.60;;
10910;SDS011;5508;49.150;11.030;2022-08-25T16:28:45;11.65;;;6.32;;
10910;SDS011;5508;49.150;11.030;2022-08-25T16:31:45;13.48;;;6.57;;
10910;SDS011;5508;49.150;11.030;2022-08-25T16:34:46;16.20;;;6.63;;
10910;SDS011;5508;49.150;11.030;2022-08-25T16:37:46;20.80;;;7.72;;
10910;SDS011;5508;49.150;11.030;2022-08-25T16:40:48;15.85;;;7.25;;
10910;SDS011;5508;49.150;11.030;2022-08-25T16:43:49;12.10;;;6.25;;
10910;SDS011;5508;49.150;11.030;2022-08-25T16:46:50;14.90;;;7.05;;
10910;SDS011;5508;49.150;11.030;2022-08-25T16:49:52;10.88;;;6.72;;
10910;SDS011;5508;49.150;11.030;2022-08-25T16:52:53;13.25;;;7.30;;
10910;SDS011;5508;49.150;11.030;2022-08-25T16:56:12;14.55;;;7.57;;
10910;SDS011;5508;49.150;11.030;2022-08-25T16:59:13;15.80;;;7.72;;
10910;SDS011;5508;49.150;11.030;2022-08-25T17:02:14;14.10;;;7.28;;
10910;SDS011;5508;49.150;11.030;2022-08-25T17:05:14;14.18;;;7.10;;
10910;SDS011;5508;49.150;11.030;2022-08-25T17:08:15;13.77;;;7.45;;
10910;SDS011;5508;49.150;11.030;2022-08-25T17:11:29;15.77;;;7.72;;
10910;SDS011;5508;49.150;11.030;2022-08-25T17:14:31;18.65;;;7.15;;
10910;SDS011;5508;49.150;11.030;2022-08-25T17:17:32;12.23;;;7.43;;
10910;SDS011;5508;49.150;11.030;2022-08-25T17:20:35;10.18;;;7.30;;
10910;SDS011;5508;49.150;11.030;2022-08-25T17:23:37;18.63;;;7.90;;
10910;SDS011;5508;49.150;11.030;2022-08-25T17:26:39;16.80;;;7.40;;
10910;SDS011;5508;49.150;11.030;2022-08-25T17:29:46;14.38;;;7.28;;
10910;SDS011;5508;49.150;11.030;2022-08-25T17:32:46;13.75;;;8.00;;
10910;SDS011;5508;49.150;11.030;2022-08-25T17:35:48;17.48;;;7.55;;
10910;SDS011;5508;49.150;11.030;2022-08-25T17:38:51;17.05;;;7.53;;
10910;SDS011;5508;49.150;11.030;2022-08-25T17:41:51;19.98;;;7.20;;
10910;SDS011;5508;49.150;11.030;2022-08-25T17:44:52;16.40;;;8.48;;
10910;SDS011;5508;49.150;11.030;2022-08-25T17:47:53;15.25;;;7.63;;
10910;SDS011;5508;49.150;11.030;2022-08-25T17:50:53;15.23;;;8.80;;
10910;SDS011;5508;49.150;11.030;2022-08-25T17:53:55;18.33;;;8.63;;
10910;SDS011;5508;49.150;11.030;2022-08-25T17:56:55;12.68;;;7.53;;
10910;SDS011;5508;49.150;11.030;2022-08-25T17:59:57;16.77;;;8.30;;
10910;SDS011;5508;49.150;11.030;2022-08-25T18:02:58;13.55;;;7.95;;
10910;SDS011;5508;49.150;11.030;2022-08-25T18:06:00;18.50;;;8.32;;
10910;SDS011;5508;49.150;11.030;2022-08-25T18:09:01;13.88;;;8.13;;
10910;SDS011;5508;49.150;11.030;2022-08-25T18:12:03;18.75;;;7.68;;
10910;SDS011;5508;49.150;11.030;2022-08-25T18:15:04;15.88;;;8.80;;
10910;SDS011;5508;49.150;11.030;2022-08-25T18:18:06;25.10;;;10.60;;
10910;SDS011;5508;49.150;11.030;2022-08-25T18:21:14;17.30;;;10.70;;
10910;SDS011;5508;49.150;11.030;2022-08-25T18:24:16;20.20;;;10.30;;
10910;SDS011;5508;49.150;11.030;2022-08-25T18:27:17;17.63;;;9.63;;
10910;SDS011;5508;49.150;11.030;2022-08-25T18:30:18;15.55;;;8.95;;
10910;SDS011;5508;49.150;11.030;2022-08-25T18:33:18;12.77;;;8.05;;
10910;SDS011;5508;49.150;11.030;2022-08-25T18:36:19;14.18;;;8.60;;
10910;SDS011;5508;49.150;11.030;2022-08-25T18:39:20;21.10;;;9.50;;
10910;SDS011;5508;49.150;11.030;2022-08-25T18:42:39;13.65;;;9.15;;
10910;SDS011;5508;49.150;11.030;2022-08-25T18:45:44;16.20;;;9.30;;
10910;SDS011;5508;49.150;11.030;2022-08-25T18:48:49;13.63;;;8.82;;
10910;SDS011;5508;49.150;11.030;2022-08-25T18:51:50;11.80;;;8.77;;
10910;SDS011;5508;49.150;11.030;2022-08-25T18:54:50;14.82;;;9.95;;
10910;SDS011;5508;49.150;11.030;2022-08-25T18:57:51;12.35;;;9.35;;
10910;SDS011;5508;49.150;11.030;2022-08-25T19:00:52;16.63;;;9.88;;
10910;SDS011;5508;49.150;11.030;2022-08-25T19:03:53;17.67;;;9.65;;
10910;SDS011;5508;49.150;11.030;2022-08-25T19:06:54;15.90;;;8.45;;
10910;SDS011;5508;49.150;11.030;2022-08-25T19:09:54;18.15;;;10.32;;
10910;SDS011;5508;49.150;11.030;2022-08-25T19:12:56;18.60;;;9.48;;
10910;SDS011;5508;49.150;11.030;2022-08-25T19:15:57;14.50;;;10.23;;
10910;SDS011;5508;49.150;11.030;2022-08-25T19:18:58;14.27;;;9.93;;
10910;SDS011;5508;49.150;11.030;2022-08-25T19:21:59;16.92;;;9.48;;
10910;SDS011;5508;49.150;11.030;2022-08-25T19:25:00;16.17;;;10.00;;
10910;SDS011;5508;49.150;11.030;2022-08-25T19:28:01;19.33;;;9.85;;
10910;SDS011;5508;49.150;11.030;2022-08-25T19:31:04;17.08;;;10.88;;
10910;SDS011;5508;49.150;11.030;2022-08-25T19:34:08;12.93;;;10.25;;
10910;SDS011;5508;49.150;11.030;2022-08-25T19:37:11;15.38;;;12.43;;
10910;SDS011;5508;49.150;11.030;2022-08-25T19:40:14;19.95;;;11.43;;